createdAt,value
2022-08-02T00:00:43.214Z,2.63
2022-08-02T00:03:11.631Z,1.97
2022-08-02T00:05:40.466Z,2.17
2022-08-02T00:08:08.887Z,2.17
2022-08-02T00:10:37.858Z,1.73
2022-08-02T00:13:06.250Z,2.40
2022-08-02T00:15:35.837Z,2.17
2022-08-02T00:18:04.289Z,2.70
2022-08-02T00:20:32.698Z,2.03
2022-08-02T00:23:01.023Z,2.60
2022-08-02T00:25:29.390Z,2.83
2022-08-02T00:27:58.227Z,2.73
2022-08-02T00:30:26.747Z,1.50
2022-08-02T00:32:56.498Z,2.93
2022-08-02T00:35:24.915Z,3.50
2022-08-02T00:37:53.191Z,3.03
2022-08-02T00:40:23.755Z,2.77
2022-08-02T00:43:04.250Z,2.57
2022-08-02T00:46:02.103Z,3.47
2022-08-02T00:48:22.394Z,3.17
2022-08-02T00:50:50.665Z,2.13
2022-08-02T00:53:19.012Z,2.03
2022-08-02T00:55:47.554Z,2.37
2022-08-02T00:58:17.426Z,2.63
2022-08-02T01:00:45.810Z,3.63
2022-08-02T01:03:14.122Z,3.10
2022-08-02T01:05:55.790Z,2.83
2022-08-02T01:08:33.071Z,3.03
2022-08-02T01:11:01.424Z,4.00
2022-08-02T01:13:30.065Z,2.97
2022-08-02T01:16:05.262Z,4.27
2022-08-02T01:18:39.640Z,3.70
2022-08-02T01:21:23.526Z,3.37
2022-08-02T01:24:36.440Z,4.10
2022-08-02T01:27:20.408Z,3.23
2022-08-02T01:29:57.804Z,4.33
2022-08-02T01:32:30.961Z,3.43
2022-08-02T01:35:04.059Z,2.30
2022-08-02T01:37:41.997Z,4.00
2022-08-02T01:40:13.219Z,3.73
2022-08-02T01:42:44.423Z,4.20
2022-08-02T01:45:16.297Z,4.47
2022-08-02T01:47:46.839Z,4.60
2022-08-02T01:50:19.422Z,5.80
2022-08-02T01:52:53.315Z,5.67
2022-08-02T01:55:33.527Z,4.10
2022-08-02T01:58:18.242Z,6.17
2022-08-02T02:00:49.261Z,6.37
2022-08-02T02:03:21.586Z,6.83
2022-08-02T02:05:51.945Z,6.87
2022-08-02T02:08:27.411Z,10.73
2022-08-02T02:10:57.632Z,8.87
2022-08-02T02:13:46.386Z,8.77
2022-08-02T02:16:17.693Z,7.63
2022-08-02T02:18:48.043Z,7.47
2022-08-02T02:21:17.318Z,9.10
2022-08-02T02:23:45.690Z,10.30
2022-08-02T02:26:17.582Z,7.60
2022-08-02T02:29:01.890Z,9.00
2022-08-02T02:31:34.364Z,8.93
2022-08-02T02:34:05.540Z,10.43
2022-08-02T02:36:35.906Z,11.13
2022-08-02T02:39:11.610Z,10.87
2022-08-02T02:41:43.676Z,11.33
2022-08-02T02:44:15.136Z,10.97
2022-08-02T02:46:46.088Z,11.37
2022-08-02T02:49:16.237Z,11.23
2022-08-02T02:51:46.434Z,12.03
2022-08-02T02:54:33.469Z,11.33
2022-08-02T02:57:05.470Z,10.37
2022-08-02T02:59:35.446Z,11.80
2022-08-02T03:02:07.131Z,10.13
2022-08-02T03:04:57.357Z,11.53
2022-08-02T03:07:24.508Z,11.13
2022-08-02T03:09:54.165Z,13.23
2022-08-02T03:12:30.173Z,11.50
2022-08-02T03:15:00.204Z,12.73
2022-08-02T03:17:40.837Z,13.23
2022-08-02T03:20:12.935Z,13.80
2022-08-02T03:22:41.415Z,13.43
2022-08-02T03:25:10.915Z,11.43
2022-08-02T03:27:39.727Z,11.33
2022-08-02T03:30:10.257Z,14.33
2022-08-02T03:32:41.711Z,11.43
2022-08-02T03:35:12.995Z,14.37
2022-08-02T03:37:42.711Z,14.67
2022-08-02T03:40:13.275Z,19.23
2022-08-02T03:42:42.525Z,18.10
2022-08-02T03:45:13.639Z,19.47
2022-08-02T03:47:44.741Z,22.27
2022-08-02T03:50:14.494Z,21.97
2022-08-02T03:52:43.868Z,22.30
2022-08-02T03:55:13.891Z,23.70
2022-08-02T03:57:43.973Z,25.57
2022-08-02T04:00:18.448Z,22.63
2022-08-02T04:02:48.597Z,25.87
2022-08-02T04:05:17.424Z,23.60
2022-08-02T04:08:34.864Z,25.77
2022-08-02T04:10:54.765Z,28.27
2022-08-02T04:13:27.452Z,27.33
2022-08-02T04:16:02.259Z,35.10
2022-08-02T04:18:40.325Z,34.70
2022-08-02T04:21:13.304Z,30.23
2022-08-02T04:23:44.899Z,39.10
2022-08-02T04:26:13.730Z,34.40
2022-08-02T04:28:44.757Z,35.57
2022-08-02T04:31:13.312Z,37.23
2022-08-02T04:33:43.589Z,33.73
2022-08-02T04:36:14.159Z,35.83
2022-08-02T04:38:42.949Z,34.77
2022-08-02T04:41:11.288Z,32.30
2022-08-02T04:43:39.693Z,32.73
2022-08-02T04:46:08.183Z,36.10
2022-08-02T04:48:36.466Z,32.53
2022-08-02T04:51:06.174Z,31.97
2022-08-02T04:53:34.633Z,32.50
2022-08-02T04:56:02.952Z,30.60
2022-08-02T04:58:40.683Z,34.53
2022-08-02T05:01:09.420Z,39.37
2022-08-02T05:03:37.876Z,35.80
2022-08-02T05:06:19.016Z,35.57
2022-08-02T05:08:52.762Z,30.90
2022-08-02T05:11:22.405Z,32.17
2022-08-02T05:14:03.232Z,32.73
2022-08-02T05:16:32.263Z,28.63
2022-08-02T05:19:01.166Z,27.80
2022-08-02T05:21:32.438Z,27.27
2022-08-02T05:24:00.792Z,28.10
2022-08-02T05:26:29.110Z,26.67
2022-08-02T05:28:57.416Z,24.17
2022-08-02T05:31:25.699Z,27.07
2022-08-02T05:33:53.973Z,29.03
2022-08-02T05:36:22.240Z,35.47
2022-08-02T05:38:52.857Z,32.83
2022-08-02T05:41:28.049Z,32.57
2022-08-02T05:43:56.290Z,32.80
2022-08-02T05:46:24.638Z,33.83
2022-08-02T05:48:52.970Z,35.87
2022-08-02T05:51:24.903Z,30.50
2022-08-02T05:54:03.724Z,33.17
2022-08-02T05:56:36.326Z,33.03
2022-08-02T05:59:06.187Z,30.97
2022-08-02T06:01:37.898Z,29.80
2022-08-02T06:04:08.424Z,26.27
2022-08-02T06:06:37.742Z,30.97
2022-08-02T06:09:11.169Z,25.10
2022-08-02T06:11:42.582Z,26.27
2022-08-02T06:14:32.917Z,23.27
2022-08-02T06:17:04.671Z,27.23
2022-08-02T06:19:48.834Z,29.43
2022-08-02T06:22:32.483Z,26.20
2022-08-02T06:25:48.540Z,25.00
2022-08-02T06:27:56.318Z,25.70
2022-08-02T06:30:24.814Z,25.70
2022-08-02T06:32:53.695Z,20.63
2022-08-02T06:35:22.377Z,21.17
2022-08-02T06:37:58.745Z,18.43
2022-08-02T06:40:34.093Z,16.20
2022-08-02T06:43:12.010Z,13.03
2022-08-02T06:45:42.296Z,14.73
2022-08-02T06:48:11.623Z,13.83
2022-08-02T06:50:41.974Z,12.90
2022-08-02T06:53:11.720Z,11.57
2022-08-02T06:55:43.381Z,11.07
2022-08-02T06:58:12.776Z,11.47
2022-08-02T07:00:41.444Z,10.87
2022-08-02T07:03:09.798Z,11.03
2022-08-02T07:05:38.258Z,11.70
2022-08-02T07:08:06.686Z,11.33
2022-08-02T07:10:35.238Z,12.33
2022-08-02T07:13:04.917Z,8.60
2022-08-02T07:15:33.324Z,10.17
2022-08-02T07:18:01.773Z,8.20
2022-08-02T07:20:30.307Z,8.33
2022-08-02T07:22:58.750Z,12.60
2022-08-02T07:25:27.021Z,8.53
2022-08-02T07:28:24.132Z,10.03
2022-08-02T07:30:53.079Z,7.60
2022-08-02T07:33:38.017Z,6.63
2022-08-02T07:36:09.783Z,5.17
2022-08-02T07:38:45.965Z,4.50
2022-08-02T07:41:15.355Z,3.25
2022-08-02T07:43:45.119Z,4.95
2022-08-02T07:46:13.423Z,2.80
2022-08-02T07:48:41.713Z,4.65
2022-08-02T07:51:12.990Z,4.03
2022-08-02T07:53:51.075Z,4.13
2022-08-02T07:56:30.668Z,3.58
2022-08-02T07:59:00.405Z,3.65
2022-08-02T08:01:28.801Z,3.75
2022-08-02T08:03:57.242Z,3.45
2022-08-02T08:06:28.911Z,3.97
2022-08-02T08:08:57.724Z,4.63
2022-08-02T08:11:26.481Z,3.78
2022-08-02T08:13:54.859Z,3.88
2022-08-02T08:16:26.210Z,4.10
2022-08-02T08:18:54.640Z,4.38
2022-08-02T08:21:23.238Z,3.17
2022-08-02T08:23:51.510Z,3.08
2022-08-02T08:26:19.798Z,3.92
2022-08-02T08:28:48.130Z,3.10
2022-08-02T08:31:16.455Z,2.97
2022-08-02T08:33:46.136Z,4.38
2022-08-02T08:36:16.548Z,3.83
2022-08-02T08:38:44.976Z,4.22
2022-08-02T08:41:13.295Z,4.60
2022-08-02T08:43:41.603Z,2.60
2022-08-02T08:46:12.378Z,1.98
2022-08-02T08:48:44.518Z,2.15
2022-08-02T08:51:19.037Z,4.68
2022-08-02T08:53:50.238Z,5.18
2022-08-02T08:56:19.194Z,3.75
2022-08-02T08:58:48.498Z,2.55
2022-08-02T09:01:17.425Z,4.95
2022-08-02T09:03:46.212Z,6.00
2022-08-02T09:06:15.992Z,3.08
2022-08-02T09:08:44.399Z,3.60
2022-08-02T09:11:17.312Z,3.65
2022-08-02T09:13:54.663Z,4.43
2022-08-02T09:16:31.115Z,3.15
2022-08-02T09:19:00.443Z,3.40
2022-08-02T09:21:38.826Z,4.65
2022-08-02T09:24:18.627Z,5.70
2022-08-02T09:26:48.178Z,4.28
2022-08-02T09:29:17.031Z,7.03
2022-08-02T09:31:49.948Z,6.03
2022-08-02T09:34:20.086Z,3.65
2022-08-02T09:36:54.762Z,5.63
2022-08-02T09:39:26.432Z,6.03
2022-08-02T09:42:08.461Z,3.05
2022-08-02T09:44:37.939Z,4.65
2022-08-02T09:47:16.545Z,2.30
2022-08-02T09:49:52.216Z,4.75
2022-08-02T09:52:43.194Z,5.55
2022-08-02T09:55:13.472Z,5.20
2022-08-02T09:57:41.981Z,2.65
2022-08-02T10:00:14.297Z,3.83
2022-08-02T10:03:08.418Z,3.58
2022-08-02T10:05:55.970Z,5.10
2022-08-02T10:08:34.047Z,8.73
2022-08-02T10:11:03.788Z,5.13
2022-08-02T10:13:34.430Z,2.92
2022-08-02T10:16:03.641Z,5.15
2022-08-02T10:18:41.058Z,4.97
2022-08-02T10:21:15.356Z,31.67
2022-08-02T10:23:47.241Z,16.20
2022-08-02T10:26:18.093Z,4.72
2022-08-02T10:28:49.492Z,2.28
2022-08-02T10:31:25.152Z,7.25
2022-08-02T10:33:55.199Z,5.80
2022-08-02T10:36:27.193Z,7.50
2022-08-02T10:38:59.630Z,6.30
2022-08-02T10:41:46.789Z,4.32
2022-08-02T10:44:27.694Z,9.80
2022-08-02T10:47:20.607Z,2.70
2022-08-02T10:49:53.909Z,4.00
2022-08-02T10:52:23.110Z,4.15
2022-08-02T10:54:57.242Z,6.03
2022-08-02T10:57:27.334Z,4.30
2022-08-02T10:59:58.301Z,5.38
2022-08-02T11:02:38.370Z,4.93
2022-08-02T11:05:12.485Z,3.53
2022-08-02T11:07:42.398Z,3.55
2022-08-02T11:10:39.730Z,6.40
2022-08-02T11:13:11.548Z,7.28
2022-08-02T11:16:10.691Z,2.45
2022-08-02T11:19:07.291Z,4.88
2022-08-02T11:21:36.832Z,18.35
2022-08-02T11:24:28.720Z,9.82
2022-08-02T11:26:59.709Z,24.45
2022-08-02T11:29:38.261Z,12.55
2022-08-02T11:32:08.959Z,8.50
2022-08-02T11:34:38.456Z,3.35
2022-08-02T11:37:07.692Z,4.22
2022-08-02T11:39:36.070Z,2.08
2022-08-02T11:42:06.605Z,3.53
2022-08-02T11:44:42.151Z,3.78
2022-08-02T11:47:10.772Z,3.45
2022-08-02T11:49:39.381Z,3.83
2022-08-02T11:52:11.117Z,4.05
2022-08-02T11:54:41.672Z,2.35
2022-08-02T11:57:21.068Z,2.22
2022-08-02T11:59:52.959Z,3.15
2022-08-02T12:02:23.533Z,4.28
2022-08-02T12:04:58.347Z,4.50
2022-08-02T12:07:31.969Z,3.10
2022-08-02T12:10:05.679Z,2.08
2022-08-02T12:12:47.524Z,3.65
2022-08-02T12:15:31.151Z,4.90
2022-08-02T12:18:17.841Z,3.65
2022-08-02T12:20:46.461Z,2.28
2022-08-02T12:23:15.119Z,1.85
2022-08-02T12:25:43.957Z,3.13
2022-08-02T12:28:19.827Z,3.60
2022-08-02T12:30:55.975Z,2.92
2022-08-02T12:33:25.809Z,4.80
2022-08-02T12:35:54.477Z,3.17
2022-08-02T12:38:23.517Z,2.25
2022-08-02T12:40:52.203Z,3.47
2022-08-02T12:43:23.974Z,2.28
2022-08-02T12:45:54.486Z,5.07
2022-08-02T12:48:39.238Z,2.03
2022-08-02T12:51:20.839Z,3.55
2022-08-02T12:53:58.935Z,6.80
2022-08-02T12:56:29.532Z,2.00
2022-08-02T12:58:59.965Z,3.35
2022-08-02T13:01:29.901Z,5.15
2022-08-02T13:04:11.735Z,5.63
2022-08-02T13:06:44.529Z,9.75
2022-08-02T13:09:15.483Z,13.00
2022-08-02T13:11:44.593Z,2.92
2022-08-02T13:14:15.408Z,10.05
2022-08-02T13:16:46.784Z,10.00
2022-08-02T13:19:16.281Z,7.55
2022-08-02T13:22:01.358Z,5.38
2022-08-02T13:24:37.880Z,5.07
2022-08-02T13:27:08.298Z,4.45
2022-08-02T13:29:38.955Z,19.35
2022-08-02T13:32:07.617Z,5.25
2022-08-02T13:34:36.134Z,8.32
2022-08-02T13:37:05.104Z,10.25
2022-08-02T13:39:33.394Z,5.63
2022-08-02T13:42:01.724Z,5.05
2022-08-02T13:44:30.073Z,6.80
2022-08-02T13:46:59.967Z,2.50
2022-08-02T13:49:51.326Z,4.40
2022-08-02T13:52:17.069Z,4.85
2022-08-02T13:54:45.585Z,3.80
2022-08-02T13:57:13.888Z,2.20
2022-08-02T13:59:57.166Z,2.40
2022-08-02T14:02:29.251Z,4.18
2022-08-02T14:04:58.080Z,4.25
2022-08-02T14:07:26.415Z,4.93
2022-08-02T14:09:54.782Z,1.77
2022-08-02T14:12:23.045Z,2.78
2022-08-02T14:14:53.998Z,4.53
2022-08-02T14:17:22.314Z,5.45
2022-08-02T14:19:55.383Z,3.78
2022-08-02T14:22:23.956Z,3.95
2022-08-02T14:24:54.389Z,2.33
2022-08-02T14:27:23.051Z,2.05
2022-08-02T14:29:51.621Z,3.65
2022-08-02T14:32:19.954Z,3.17
2022-08-02T14:34:57.709Z,3.78
2022-08-02T14:37:26.023Z,2.00
2022-08-02T14:40:00.211Z,2.85
2022-08-02T14:42:29.449Z,1.50
2022-08-02T14:44:57.702Z,3.33
2022-08-02T14:47:26.071Z,1.80
2022-08-02T14:49:54.508Z,3.55
2022-08-02T14:52:24.278Z,4.45
2022-08-02T14:54:52.693Z,4.38
2022-08-02T14:57:21.029Z,2.15
2022-08-02T14:59:50.535Z,2.13
2022-08-02T15:02:20.659Z,3.20
2022-08-02T15:04:48.954Z,2.15
2022-08-02T15:07:17.288Z,3.22
2022-08-02T15:09:47.288Z,2.08
2022-08-02T15:12:15.952Z,7.53
2022-08-02T15:14:44.898Z,3.08
2022-08-02T15:17:13.642Z,3.00
2022-08-02T15:19:56.110Z,3.47
2022-08-02T15:22:27.495Z,1.80
2022-08-02T15:24:58.754Z,4.72
2022-08-02T15:27:27.119Z,1.90
2022-08-02T15:30:00.176Z,3.60
2022-08-02T15:32:29.104Z,4.63
2022-08-02T15:34:57.421Z,3.72
2022-08-02T15:37:26.025Z,5.45
2022-08-02T15:40:01.297Z,5.35
2022-08-02T15:42:30.513Z,3.97
2022-08-02T15:45:00.378Z,2.20
2022-08-02T15:47:28.751Z,2.92
2022-08-02T15:49:58.366Z,3.60
2022-08-02T15:52:27.684Z,2.60
2022-08-02T15:54:56.519Z,4.80
2022-08-02T15:57:37.061Z,2.88
2022-08-02T16:00:17.897Z,1.67
2022-08-02T16:02:48.017Z,3.83
2022-08-02T16:05:17.942Z,3.50
2022-08-02T16:07:47.088Z,3.92
2022-08-02T16:10:16.094Z,1.63
2022-08-02T16:12:45.847Z,1.83
2022-08-02T16:15:14.222Z,3.40
2022-08-02T16:17:49.075Z,3.70
2022-08-02T16:20:23.195Z,4.10
2022-08-02T16:22:51.589Z,2.78
2022-08-02T16:25:20.132Z,5.43
2022-08-02T16:27:59.504Z,3.03
2022-08-02T16:30:35.188Z,3.22
2022-08-02T16:33:03.614Z,3.05
2022-08-02T16:35:31.922Z,4.28
2022-08-02T16:38:00.266Z,3.67
2022-08-02T16:40:28.650Z,3.40
2022-08-02T16:42:58.377Z,4.90
2022-08-02T16:45:28.911Z,2.95
2022-08-02T16:48:05.318Z,2.00
2022-08-02T16:50:34.618Z,2.10
2022-08-02T16:53:07.481Z,2.22
2022-08-02T16:55:36.657Z,2.55
2022-08-02T16:58:09.750Z,5.43
2022-08-02T17:00:38.573Z,1.73
2022-08-02T17:03:14.998Z,4.65
2022-08-02T17:08:32.492Z,1.40
2022-08-02T17:11:03.227Z,2.17
2022-08-02T17:13:34.431Z,22.90
2022-08-02T17:16:20.322Z,6.88
2022-08-02T17:18:54.352Z,3.03
2022-08-02T17:21:22.899Z,2.20
2022-08-02T17:24:05.358Z,2.00
2022-08-02T17:26:38.561Z,6.22
2022-08-02T17:29:15.073Z,32.60
2022-08-02T17:32:05.376Z,21.58
2022-08-02T17:34:36.193Z,9.23
2022-08-02T17:37:06.112Z,5.05
2022-08-02T17:39:44.279Z,3.15
2022-08-02T17:42:23.013Z,3.25
2022-08-02T17:44:54.767Z,3.97
2022-08-02T17:47:31.042Z,4.20
2022-08-02T17:49:59.785Z,1.63
2022-08-02T17:52:51.145Z,3.25
2022-08-02T17:55:17.257Z,3.17
2022-08-02T17:57:57.260Z,3.13
2022-08-02T18:00:33.895Z,2.83
2022-08-02T18:03:05.962Z,1.77
2022-08-02T18:05:39.635Z,2.45
2022-08-02T18:08:10.465Z,3.55
2022-08-02T18:10:42.549Z,4.30
2022-08-02T18:13:12.530Z,4.65
2022-08-02T18:15:45.716Z,3.17
2022-08-02T18:18:14.847Z,3.78
2022-08-02T18:20:43.295Z,4.32
2022-08-02T18:23:13.568Z,3.47
2022-08-02T18:25:45.912Z,5.25
2022-08-02T18:28:15.767Z,6.05
2022-08-02T18:30:45.443Z,6.63
2022-08-02T18:33:59.366Z,6.22
2022-08-02T18:36:02.077Z,6.55
2022-08-02T18:38:31.397Z,6.15
2022-08-02T18:41:02.836Z,8.00
2022-08-02T18:43:32.297Z,4.30
2022-08-02T18:46:15.921Z,4.13
2022-08-02T18:48:47.903Z,5.13
2022-08-02T18:51:18.998Z,5.57
2022-08-02T18:53:51.208Z,5.40
2022-08-02T18:56:24.499Z,3.67
2022-08-02T18:58:54.709Z,4.57
2022-08-02T19:01:33.838Z,2.65
2022-08-02T19:04:04.139Z,4.35
2022-08-02T19:06:34.018Z,3.20
2022-08-02T19:09:05.944Z,5.10
2022-08-02T19:11:47.096Z,2.33
2022-08-02T19:14:29.963Z,4.63
2022-08-02T19:17:15.933Z,3.07
2022-08-02T19:19:51.290Z,3.33
2022-08-02T19:22:20.461Z,2.67
2022-08-02T19:24:51.751Z,4.50
2022-08-02T19:27:26.210Z,3.73
2022-08-02T19:30:03.091Z,4.17
2022-08-02T19:32:41.922Z,3.73
2022-08-02T19:35:30.495Z,3.87
2022-08-02T19:38:09.234Z,4.40
2022-08-02T19:40:38.993Z,4.90
2022-08-02T19:44:26.002Z,3.03
2022-08-02T19:45:57.544Z,6.03
2022-08-02T19:48:28.041Z,4.10
2022-08-02T19:50:59.504Z,5.93
2022-08-02T19:53:47.799Z,4.90
2022-08-02T19:56:24.804Z,3.23
2022-08-02T19:58:54.877Z,2.43
2022-08-02T20:01:36.977Z,5.07
2022-08-02T20:04:13.212Z,3.30
2022-08-02T20:06:45.600Z,6.97
2022-08-02T20:09:16.319Z,3.97
2022-08-02T20:11:45.807Z,4.93
2022-08-02T20:14:14.307Z,3.60
2022-08-02T20:16:42.762Z,3.87
2022-08-02T20:19:15.805Z,4.47
2022-08-02T20:21:50.506Z,4.00
2022-08-02T20:24:22.672Z,3.40
2022-08-02T20:26:55.216Z,2.97
2022-08-02T20:29:42.853Z,3.03
2022-08-02T20:32:22.550Z,6.83
2022-08-02T20:34:53.312Z,4.03
2022-08-02T20:37:59.454Z,4.07
2022-08-02T20:40:16.815Z,4.47
2022-08-02T20:42:47.527Z,3.13
2022-08-02T20:45:16.415Z,3.73
2022-08-02T20:47:45.852Z,7.90
2022-08-02T20:50:38.418Z,4.17
2022-08-02T20:53:08.113Z,2.33
2022-08-02T20:55:53.813Z,5.73
2022-08-02T20:58:26.556Z,3.00
2022-08-02T21:00:59.171Z,5.80
2022-08-02T21:03:39.531Z,5.03
2022-08-02T21:06:11.377Z,5.30
2022-08-02T21:08:45.997Z,5.00
2022-08-02T21:11:16.510Z,5.07
2022-08-02T21:13:46.690Z,6.53
2022-08-02T21:16:32.084Z,5.13
2022-08-02T21:19:02.262Z,8.10
2022-08-02T21:21:32.103Z,6.00
2022-08-02T21:24:01.609Z,7.53
2022-08-02T21:26:32.215Z,5.97
2022-08-02T21:29:03.989Z,8.93
2022-08-02T21:31:35.596Z,4.53
2022-08-02T21:34:21.839Z,7.53
2022-08-02T21:36:56.044Z,7.20
2022-08-02T21:39:24.927Z,7.77
2022-08-02T21:41:53.873Z,7.23
2022-08-02T21:44:23.131Z,7.33
2022-08-02T21:46:53.293Z,7.47
2022-08-02T21:49:40.454Z,8.23
2022-08-02T21:52:12.607Z,7.27
2022-08-02T21:54:45.163Z,10.67
2022-08-02T21:57:15.553Z,6.27
2022-08-02T22:02:37.202Z,7.07
2022-08-02T22:05:06.225Z,6.43
2022-08-02T22:10:52.778Z,7.37
2022-08-02T22:13:21.174Z,6.67
2022-08-02T22:15:50.089Z,9.13
2022-08-02T22:21:14.350Z,6.77
2022-08-02T22:23:50.234Z,5.40
2022-08-02T22:26:19.825Z,5.40
2022-08-02T22:28:51.795Z,7.97
2022-08-02T22:31:40.583Z,7.60
2022-08-02T22:34:26.835Z,8.00
2022-08-02T22:36:58.755Z,7.00
2022-08-02T22:39:28.468Z,8.23
2022-08-02T22:42:06.535Z,5.07
2022-08-02T22:44:44.667Z,7.37
2022-08-02T22:47:14.694Z,6.10
2022-08-02T22:49:54.531Z,6.57
2022-08-02T22:52:25.746Z,7.60
2022-08-02T22:54:55.674Z,7.67
2022-08-02T22:57:30.369Z,7.27
2022-08-02T22:58:36.524Z,1.38
2022-08-02T22:59:10.864Z,8.83
2022-08-02T22:59:11.398Z,7.23
2022-08-02T22:59:12.743Z,5.80
2022-08-02T23:00:00.581Z,5.73
2022-08-02T23:02:30.149Z,4.53
2022-08-02T23:04:58.641Z,4.87
2022-08-02T23:07:27.139Z,6.53
2022-08-02T23:09:56.895Z,5.57
2022-08-02T23:12:25.251Z,6.13
2022-08-02T23:14:53.850Z,6.37
2022-08-02T23:17:39.325Z,7.30
2022-08-02T23:20:09.870Z,6.60
2022-08-02T23:22:38.772Z,5.20
2022-08-02T23:25:09.550Z,5.27
2022-08-02T23:27:38.393Z,6.83
2022-08-02T23:30:08.146Z,5.90
2022-08-02T23:32:39.087Z,5.73
2022-08-02T23:35:08.753Z,4.80
2022-08-02T23:37:59.943Z,5.17
2022-08-02T23:40:38.992Z,6.17
2022-08-02T23:43:13.634Z,6.33
2022-08-02T23:45:46.165Z,4.63
2022-08-02T23:48:14.878Z,4.87
2022-08-02T23:50:43.394Z,5.53
2022-08-02T23:53:11.716Z,6.07
2022-08-02T23:55:41.485Z,6.53
2022-08-02T23:58:09.823Z,6.67
